sensor_id;sensor_type;location;lat;lon;timestamp;pressure;altitude;pressure_sealevel;temperature;humidity
58070;BME280;43863;52.256;21.048;2022-09-09T00:03:56;100329.72;;;15.32;65.81
58070;BME280;43863;52.256;21.048;2022-09-09T00:06:30;100324.19;;;15.27;67.12
58070;BME280;43863;52.256;21.048;2022-09-09T00:09:01;100320.50;;;15.21;67.21
58070;BME280;43863;52.256;21.048;2022-09-09T00:11:43;100331.81;;;15.16;67.65
58070;BME280;43863;52.256;21.048;2022-09-09T00:14:13;100327.69;;;15.07;67.36
58070;BME280;43863;52.256;21.048;2022-09-09T00:16:49;100317.22;;;15.06;68.40
58070;BME280;43863;52.256;21.048;2022-09-09T00:22:20;100310.81;;;14.93;68.49
58070;BME280;43863;52.256;21.048;2022-09-09T00:24:55;100316.19;;;14.87;68.88
58070;BME280;43863;52.256;21.048;2022-09-09T00:27:41;100310.19;;;14.85;69.21
58070;BME280;43863;52.256;21.048;2022-09-09T00:30:20;100308.34;;;14.72;69.99
58070;BME280;43863;52.256;21.048;2022-09-09T00:32:53;100314.97;;;14.76;69.90
58070;BME280;43863;52.256;21.048;2022-09-09T00:35:27;100303.63;;;14.74;69.89
58070;BME280;43863;52.256;21.048;2022-09-09T00:38:01;100299.50;;;14.65;70.81
58070;BME280;43863;52.256;21.048;2022-09-09T00:40:35;100298.47;;;14.66;71.75
58070;BME280;43863;52.256;21.048;2022-09-09T00:55:04;100298.66;;;14.57;72.05
58070;BME280;43863;52.256;21.048;2022-09-09T00:57:35;100301.97;;;14.53;71.62
58070;BME280;43863;52.256;21.048;2022-09-09T01:00:24;100286.72;;;14.47;71.81
58070;BME280;43863;52.256;21.048;2022-09-09T01:11:03;100299.84;;;14.42;71.87
58070;BME280;43863;52.256;21.048;2022-09-09T01:13:34;100303.75;;;14.46;72.04
58070;BME280;43863;52.256;21.048;2022-09-09T01:16:10;100299.44;;;14.45;71.98
58070;BME280;43863;52.256;21.048;2022-09-09T01:18:46;100298.41;;;14.46;72.02
58070;BME280;43863;52.256;21.048;2022-09-09T01:24:24;100297.38;;;14.40;72.03
58070;BME280;43863;52.256;21.048;2022-09-09T01:27:28;100295.72;;;14.32;71.94
58070;BME280;43863;52.256;21.048;2022-09-09T01:29:56;100291.78;;;14.28;72.15
58070;BME280;43863;52.256;21.048;2022-09-09T01:32:49;100287.50;;;14.34;72.51
58070;BME280;43863;52.256;21.048;2022-09-09T01:35:45;100278.06;;;14.38;72.43
58070;BME280;43863;52.256;21.048;2022-09-09T01:38:17;100282.59;;;14.38;72.36
58070;BME280;43863;52.256;21.048;2022-09-09T01:40:47;100272.72;;;14.38;72.32
58070;BME280;43863;52.256;21.048;2022-09-09T01:43:15;100280.53;;;14.40;72.47
58070;BME280;43863;52.256;21.048;2022-09-09T01:45:44;100283.59;;;14.43;72.79
58070;BME280;43863;52.256;21.048;2022-09-09T01:48:14;100284.84;;;14.47;72.61
58070;BME280;43863;52.256;21.048;2022-09-09T01:50:45;100287.72;;;14.46;72.41
58070;BME280;43863;52.256;21.048;2022-09-09T01:53:15;100277.47;;;14.49;72.37
58070;BME280;43863;52.256;21.048;2022-09-09T01:55:57;100278.72;;;14.53;72.08
58070;BME280;43863;52.256;21.048;2022-09-09T02:02:08;100289.56;;;14.45;72.20
58070;BME280;43863;52.256;21.048;2022-09-09T02:04:48;100291.03;;;14.48;72.02
58070;BME280;43863;52.256;21.048;2022-09-09T02:07:28;100296.38;;;14.48;72.24
58070;BME280;43863;52.256;21.048;2022-09-09T02:10:21;100287.72;;;14.46;71.89
58070;BME280;43863;52.256;21.048;2022-09-09T02:13:10;100288.94;;;14.43;72.04
58070;BME280;43863;52.256;21.048;2022-09-09T02:15:52;100282.19;;;14.41;71.92
58070;BME280;43863;52.256;21.048;2022-09-09T02:18:31;100287.53;;;14.41;71.93
58070;BME280;43863;52.256;21.048;2022-09-09T02:21:02;100274.97;;;14.41;71.92
58070;BME280;43863;52.256;21.048;2022-09-09T02:23:32;100278.88;;;14.39;71.77
58070;BME280;43863;52.256;21.048;2022-09-09T02:26:04;100276.22;;;14.39;71.95
58070;BME280;43863;52.256;21.048;2022-09-09T02:28:33;100277.25;;;14.38;72.28
58070;BME280;43863;52.256;21.048;2022-09-09T02:31:02;100276.41;;;14.37;72.39
58070;BME280;43863;52.256;21.048;2022-09-09T02:33:40;100269.81;;;14.40;72.74
58070;BME280;43863;52.256;21.048;2022-09-09T02:36:10;100275.16;;;14.40;72.39
58070;BME280;43863;52.256;21.048;2022-09-09T02:38:48;100274.16;;;14.41;72.48
58070;BME280;43863;52.256;21.048;2022-09-09T02:41:25;100279.69;;;14.46;72.35
58070;BME280;43863;52.256;21.048;2022-09-09T02:43:55;100281.56;;;14.45;72.22
58070;BME280;43863;52.256;21.048;2022-09-09T02:49:09;100286.31;;;14.50;71.67
58070;BME280;43863;52.256;21.048;2022-09-09T02:51:53;100286.75;;;14.53;71.95
58070;BME280;43863;52.256;21.048;2022-09-09T02:54:32;100282.22;;;14.54;72.08
58070;BME280;43863;52.256;21.048;2022-09-09T02:57:17;100287.78;;;14.52;71.83
58070;BME280;43863;52.256;21.048;2022-09-09T02:59:49;100288.97;;;14.50;71.67
58070;BME280;43863;52.256;21.048;2022-09-09T03:02:18;100296.19;;;14.49;71.74
58070;BME280;43863;52.256;21.048;2022-09-09T03:04:51;100287.72;;;14.46;71.65
58070;BME280;43863;52.256;21.048;2022-09-09T03:07:20;100297.59;;;14.45;71.90
58070;BME280;43863;52.256;21.048;2022-09-09T03:09:50;100284.84;;;14.41;72.07
58070;BME280;43863;52.256;21.048;2022-09-09T03:12:18;100294.69;;;14.40;72.25
58070;BME280;43863;52.256;21.048;2022-09-09T03:14:46;100293.06;;;14.39;72.39
58070;BME280;43863;52.256;21.048;2022-09-09T03:17:14;100291.63;;;14.43;72.57
58070;BME280;43863;52.256;21.048;2022-09-09T03:19:49;100277.25;;;14.44;72.83
58070;BME280;43863;52.256;21.048;2022-09-09T03:22:17;100284.03;;;14.47;73.25
58070;BME280;43863;52.256;21.048;2022-09-09T03:24:46;100281.78;;;14.50;73.10
58070;BME280;43863;52.256;21.048;2022-09-09T03:27:14;100277.25;;;14.51;73.30
58070;BME280;43863;52.256;21.048;2022-09-09T03:29:43;100274.00;;;14.55;73.21
58070;BME280;43863;52.256;21.048;2022-09-09T03:32:13;100276.69;;;14.55;73.18
58070;BME280;43863;52.256;21.048;2022-09-09T03:34:45;100273.16;;;14.55;73.51
58070;BME280;43863;52.256;21.048;2022-09-09T03:37:18;100266.81;;;14.56;73.86
58070;BME280;43863;52.256;21.048;2022-09-09T03:39:49;100268.03;;;14.53;73.77
58070;BME280;43863;52.256;21.048;2022-09-09T03:42:18;100276.06;;;14.53;74.24
58070;BME280;43863;52.256;21.048;2022-09-09T03:44:49;100276.69;;;14.55;74.24
58070;BME280;43863;52.256;21.048;2022-09-09T03:47:21;100269.66;;;14.54;73.79
58070;BME280;43863;52.256;21.048;2022-09-09T03:49:55;100274.19;;;14.54;74.26
58070;BME280;43863;52.256;21.048;2022-09-09T03:52:23;100271.34;;;14.55;74.37
58070;BME280;43863;52.256;21.048;2022-09-09T03:54:54;100278.31;;;14.56;74.37
58070;BME280;43863;52.256;21.048;2022-09-09T03:57:21;100282.44;;;14.59;74.38
58070;BME280;43863;52.256;21.048;2022-09-09T03:59:50;100283.06;;;14.61;74.41
58070;BME280;43863;52.256;21.048;2022-09-09T04:02:17;100279.13;;;14.64;74.30
58070;BME280;43863;52.256;21.048;2022-09-09T04:04:45;100287.78;;;14.66;74.14
58070;BME280;43863;52.256;21.048;2022-09-09T04:07:13;100284.69;;;14.62;73.90
58070;BME280;43863;52.256;21.048;2022-09-09T04:09:41;100279.75;;;14.52;74.28
58070;BME280;43863;52.256;21.048;2022-09-09T04:12:09;100280.97;;;14.50;74.82
58070;BME280;43863;52.256;21.048;2022-09-09T04:14:41;100281.59;;;14.52;75.08
58070;BME280;43863;52.256;21.048;2022-09-09T04:17:10;100282.44;;;14.52;74.91
58070;BME280;43863;52.256;21.048;2022-09-09T04:19:38;100281.19;;;14.55;75.25
58070;BME280;43863;52.256;21.048;2022-09-09T04:22:06;100276.88;;;14.61;75.27
58070;BME280;43863;52.256;21.048;2022-09-09T04:24:34;100281.81;;;14.64;75.15
58070;BME280;43863;52.256;21.048;2022-09-09T04:27:02;100287.59;;;14.67;75.56
58070;BME280;43863;52.256;21.048;2022-09-09T04:29:33;100283.25;;;14.66;75.41
58070;BME280;43863;52.256;21.048;2022-09-09T04:32:01;100281.41;;;14.67;75.58
58070;BME280;43863;52.256;21.048;2022-09-09T04:34:29;100282.25;;;14.67;75.46
58070;BME280;43863;52.256;21.048;2022-09-09T04:36:58;100273.19;;;14.68;75.69
58070;BME280;43863;52.256;21.048;2022-09-09T04:39:27;100279.34;;;14.69;75.41
58070;BME280;43863;52.256;21.048;2022-09-09T04:41:56;100281.22;;;14.68;75.65
58070;BME280;43863;52.256;21.048;2022-09-09T04:44:23;100282.25;;;14.67;75.72
58070;BME280;43863;52.256;21.048;2022-09-09T04:46:51;100283.66;;;14.70;75.78
58070;BME280;43863;52.256;21.048;2022-09-09T04:49:20;100286.34;;;14.70;75.83
58070;BME280;43863;52.256;21.048;2022-09-09T04:51:50;100293.56;;;14.76;75.78
58070;BME280;43863;52.256;21.048;2022-09-09T04:54:18;100299.09;;;14.74;75.81
58070;BME280;43863;52.256;21.048;2022-09-09T04:56:47;100298.06;;;14.75;75.70
58070;BME280;43863;52.256;21.048;2022-09-09T04:59:14;100298.06;;;14.75;75.88
58070;BME280;43863;52.256;21.048;2022-09-09T05:01:46;100299.31;;;14.79;75.64
58070;BME280;43863;52.256;21.048;2022-09-09T05:04:14;100298.69;;;14.84;75.68
58070;BME280;43863;52.256;21.048;2022-09-09T05:06:43;100300.94;;;14.87;75.44
58070;BME280;43863;52.256;21.048;2022-09-09T05:09:38;100298.28;;;14.94;75.43
58070;BME280;43863;52.256;21.048;2022-09-09T05:12:06;100305.88;;;14.90;75.06
58070;BME280;43863;52.256;21.048;2022-09-09T05:14:36;100310.22;;;14.91;75.34
58070;BME280;43863;52.256;21.048;2022-09-09T05:17:06;100309.81;;;15.01;74.97
58070;BME280;43863;52.256;21.048;2022-09-09T05:19:36;100310.22;;;15.05;74.83
58070;BME280;43863;52.256;21.048;2022-09-09T05:22:04;100311.22;;;15.10;74.74
58070;BME280;43863;52.256;21.048;2022-09-09T05:24:42;100305.28;;;15.15;74.97
58070;BME280;43863;52.256;21.048;2022-09-09T05:27:10;100306.28;;;15.14;74.87
58070;BME280;43863;52.256;21.048;2022-09-09T05:29:40;100303.59;;;15.14;74.95
58070;BME280;43863;52.256;21.048;2022-09-09T05:32:11;100313.31;;;15.15;74.85
58070;BME280;43863;52.256;21.048;2022-09-09T05:34:44;100315.13;;;15.14;74.78
58070;BME280;43863;52.256;21.048;2022-09-09T05:37:12;100311.22;;;15.17;74.49
58070;BME280;43863;52.256;21.048;2022-09-09T05:39:39;100315.34;;;15.19;74.80
58070;BME280;43863;52.256;21.048;2022-09-09T05:42:07;100310.63;;;15.21;74.69
58070;BME280;43863;52.256;21.048;2022-09-09T05:44:35;100302.38;;;15.23;74.53
58070;BME280;43863;52.256;21.048;2022-09-09T05:47:03;100309.16;;;15.25;74.59
58070;BME280;43863;52.256;21.048;2022-09-09T05:49:31;100308.16;;;15.27;74.51
58070;BME280;43863;52.256;21.048;2022-09-09T05:51:59;100306.91;;;15.22;74.50
58070;BME280;43863;52.256;21.048;2022-09-09T05:54:27;100302.38;;;15.23;74.12
58070;BME280;43863;52.256;21.048;2022-09-09T05:56:55;100308.75;;;15.22;74.20
58070;BME280;43863;52.256;21.048;2022-09-09T05:59:23;100304.63;;;15.19;74.72
58070;BME280;43863;52.256;21.048;2022-09-09T06:01:54;100313.47;;;15.20;74.70
58070;BME280;43863;52.256;21.048;2022-09-09T06:04:29;100311.44;;;15.22;74.78
58070;BME280;43863;52.256;21.048;2022-09-09T06:06:59;100317.00;;;15.20;74.55
58070;BME280;43863;52.256;21.048;2022-09-09T06:09:28;100316.16;;;15.20;74.63
58070;BME280;43863;52.256;21.048;2022-09-09T06:12:00;100315.34;;;15.19;74.72
58070;BME280;43863;52.256;21.048;2022-09-09T06:14:32;100323.78;;;15.23;74.56
58070;BME280;43863;52.256;21.048;2022-09-09T06:17:00;100323.34;;;15.26;74.46
58070;BME280;43863;52.256;21.048;2022-09-09T06:19:30;100322.53;;;15.25;74.23
58070;BME280;43863;52.256;21.048;2022-09-09T06:22:00;100328.28;;;15.29;74.19
58070;BME280;43863;52.256;21.048;2022-09-09T06:24:31;100329.53;;;15.33;74.21
58070;BME280;43863;52.256;21.048;2022-09-09T06:27:00;100333.44;;;15.37;74.17
58070;BME280;43863;52.256;21.048;2022-09-09T06:29:32;100332.00;;;15.41;74.17
58070;BME280;43863;52.256;21.048;2022-09-09T06:32:02;100334.69;;;15.41;74.24
58070;BME280;43863;52.256;21.048;2022-09-09T06:34:30;100341.03;;;15.40;74.09
58070;BME280;43863;52.256;21.048;2022-09-09T06:37:00;100333.63;;;15.42;73.73
58070;BME280;43863;52.256;21.048;2022-09-09T06:39:34;100341.84;;;15.41;73.91
58070;BME280;43863;52.256;21.048;2022-09-09T06:42:03;100340.63;;;15.43;73.91
58070;BME280;43863;52.256;21.048;2022-09-09T06:44:57;100341.47;;;15.44;73.64
58070;BME280;43863;52.256;21.048;2022-09-09T06:47:35;100333.03;;;15.47;73.90
58070;BME280;43863;52.256;21.048;2022-09-09T06:50:03;100348.66;;;15.50;73.70
58070;BME280;43863;52.256;21.048;2022-09-09T06:52:35;100346.19;;;15.48;73.83
58070;BME280;43863;52.256;21.048;2022-09-09T06:55:03;100339.38;;;15.53;73.71
58070;BME280;43863;52.256;21.048;2022-09-09T06:57:32;100344.13;;;15.51;73.77
58070;BME280;43863;52.256;21.048;2022-09-09T07:00:18;100349.69;;;15.49;73.88
58070;BME280;43863;52.256;21.048;2022-09-09T07:02:46;100356.69;;;15.50;73.78
58070;BME280;43863;52.256;21.048;2022-09-09T07:05:14;100348.84;;;15.55;73.78
58070;BME280;43863;52.256;21.048;2022-09-09T07:07:45;100354.41;;;15.54;73.79
58070;BME280;43863;52.256;21.048;2022-09-09T07:10:16;100356.06;;;15.55;73.71
58070;BME280;43863;52.256;21.048;2022-09-09T07:12:53;100351.53;;;15.62;73.87
58070;BME280;43863;52.256;21.048;2022-09-09T07:15:23;100354.22;;;15.62;73.72
58070;BME280;43863;52.256;21.048;2022-09-09T07:17:51;100354.41;;;15.60;73.58
58070;BME280;43863;52.256;21.048;2022-09-09T07:20:20;100365.72;;;15.62;73.67
58070;BME280;43863;52.256;21.048;2022-09-09T07:22:49;100361.81;;;15.65;73.79
58070;BME280;43863;52.256;21.048;2022-09-09T07:25:17;100363.25;;;15.67;73.64
58070;BME280;43863;52.256;21.048;2022-09-09T07:27:46;100362.41;;;15.67;73.79
58070;BME280;43863;52.256;21.048;2022-09-09T07:30:14;100365.75;;;15.69;73.65
58070;BME280;43863;52.256;21.048;2022-09-09T07:32:51;100370.06;;;15.70;73.37
58070;BME280;43863;52.256;21.048;2022-09-09T07:35:19;100371.69;;;15.64;73.28
58070;BME280;43863;52.256;21.048;2022-09-09T07:37:48;100371.91;;;15.69;73.31
58070;BME280;43863;52.256;21.048;2022-09-09T07:40:19;100379.13;;;15.69;73.28
58070;BME280;43863;52.256;21.048;2022-09-09T07:42:50;100377.88;;;15.65;73.24
58070;BME280;43863;52.256;21.048;2022-09-09T07:45:17;100380.56;;;15.72;73.39
58070;BME280;43863;52.256;21.048;2022-09-09T07:47:46;100378.91;;;15.77;73.15
58070;BME280;43863;52.256;21.048;2022-09-09T07:50:17;100380.34;;;15.86;73.06
58070;BME280;43863;52.256;21.048;2022-09-09T07:52:45;100376.41;;;15.89;73.03
58070;BME280;43863;52.256;21.048;2022-09-09T07:55:38;100384.41;;;15.96;72.76
58070;BME280;43863;52.256;21.048;2022-09-09T07:58:06;100395.56;;;15.92;72.55
58070;BME280;43863;52.256;21.048;2022-09-09T08:00:34;100392.88;;;15.92;72.58
58070;BME280;43863;52.256;21.048;2022-09-09T08:03:04;100390.59;;;15.96;72.38
58070;BME280;43863;52.256;21.048;2022-09-09T08:05:34;100397.59;;;15.97;72.55
58070;BME280;43863;52.256;21.048;2022-09-09T08:08:03;100399.88;;;16.00;72.67
58070;BME280;43863;52.256;21.048;2022-09-09T08:10:33;100404.41;;;16.06;72.38
58070;BME280;43863;52.256;21.048;2022-09-09T08:13:00;100396.78;;;16.03;72.44
58070;BME280;43863;52.256;21.048;2022-09-09T08:15:46;100409.53;;;16.08;72.25
58070;BME280;43863;52.256;21.048;2022-09-09T08:18:14;100411.19;;;16.02;72.27
58070;BME280;43863;52.256;21.048;2022-09-09T08:20:43;100410.19;;;15.90;72.60
58070;BME280;43863;52.256;21.048;2022-09-09T08:23:11;100409.59;;;15.81;72.74
58070;BME280;43863;52.256;21.048;2022-09-09T08:25:38;100414.94;;;15.81;73.06
58070;BME280;43863;52.256;21.048;2022-09-09T08:28:06;100414.53;;;15.84;72.91
58070;BME280;43863;52.256;21.048;2022-09-09T08:30:34;100410.63;;;15.80;73.21
58070;BME280;43863;52.256;21.048;2022-09-09T08:33:01;100415.19;;;15.80;73.02
58070;BME280;43863;52.256;21.048;2022-09-09T08:35:29;100420.53;;;15.73;73.02
58070;BME280;43863;52.256;21.048;2022-09-09T08:38:02;100426.28;;;15.70;72.88
58070;BME280;43863;52.256;21.048;2022-09-09T08:40:38;100418.06;;;15.72;73.20
58070;BME280;43863;52.256;21.048;2022-09-09T08:43:16;100428.56;;;15.80;73.06
58070;BME280;43863;52.256;21.048;2022-09-09T08:46:00;100422.78;;;15.83;72.92
58070;BME280;43863;52.256;21.048;2022-09-09T08:51:40;100421.13;;;15.95;72.56
58070;BME280;43863;52.256;21.048;2022-09-09T08:54:11;100425.00;;;15.99;72.63
58070;BME280;43863;52.256;21.048;2022-09-09T08:57:05;100418.22;;;16.03;72.48
58070;BME280;43863;52.256;21.048;2022-09-09T08:59:39;100426.25;;;16.03;72.54
58070;BME280;43863;52.256;21.048;2022-09-09T09:05:27;100422.09;;;16.07;72.57
58070;BME280;43863;52.256;21.048;2022-09-09T09:11:12;100430.31;;;16.19;72.73
58070;BME280;43863;52.256;21.048;2022-09-09T09:13:56;100441.00;;;16.26;72.35
58070;BME280;43863;52.256;21.048;2022-09-09T09:16:34;100430.09;;;16.27;72.28
58070;BME280;43863;52.256;21.048;2022-09-09T09:19:13;100437.72;;;16.30;72.05
58070;BME280;43863;52.256;21.048;2022-09-09T09:30:42;100445.75;;;16.30;72.39
58070;BME280;43863;52.256;21.048;2022-09-09T09:33:27;100452.31;;;16.34;72.19
58070;BME280;43863;52.256;21.048;2022-09-09T09:35:57;100454.81;;;16.29;72.00
58070;BME280;43863;52.256;21.048;2022-09-09T09:38:29;100454.84;;;16.23;72.21
58070;BME280;43863;52.256;21.048;2022-09-09T09:41:49;100453.19;;;16.22;72.40
58070;BME280;43863;52.256;21.048;2022-09-09T09:44:34;100456.88;;;16.21;72.28
58070;BME280;43863;52.256;21.048;2022-09-09T09:47:21;100458.75;;;16.20;72.49
58070;BME280;43863;52.256;21.048;2022-09-09T09:50:00;100458.94;;;16.25;72.55
58070;BME280;43863;52.256;21.048;2022-09-09T09:52:35;100451.69;;;16.32;72.48
58070;BME280;43863;52.256;21.048;2022-09-09T09:55:13;100452.72;;;16.38;72.39
58070;BME280;43863;52.256;21.048;2022-09-09T09:57:44;100460.56;;;16.40;72.63
58070;BME280;43863;52.256;21.048;2022-09-09T10:00:16;100464.44;;;16.44;72.54
58070;BME280;43863;52.256;21.048;2022-09-09T10:02:52;100458.06;;;16.45;72.41
58070;BME280;43863;52.256;21.048;2022-09-09T10:05:29;100452.25;;;16.54;72.43
58070;BME280;43863;52.256;21.048;2022-09-09T10:08:14;100456.34;;;16.64;72.35
58070;BME280;43863;52.256;21.048;2022-09-09T10:10:50;100454.22;;;16.79;72.40
58070;BME280;43863;52.256;21.048;2022-09-09T10:14:00;100458.28;;;16.95;71.84
58070;BME280;43863;52.256;21.048;2022-09-09T10:22:04;100470.09;;;17.12;71.00
58070;BME280;43863;52.256;21.048;2022-09-09T10:33:42;100480.31;;;16.97;71.12
58070;BME280;43863;52.256;21.048;2022-09-09T10:36:25;100490.00;;;17.04;71.05
58070;BME280;43863;52.256;21.048;2022-09-09T10:39:05;100490.00;;;17.04;70.86
58070;BME280;43863;52.256;21.048;2022-09-09T10:41:57;100496.78;;;17.07;70.70
58070;BME280;43863;52.256;21.048;2022-09-09T10:56:26;100524.09;;;16.97;70.70
58070;BME280;43863;52.256;21.048;2022-09-09T10:59:05;100518.94;;;16.96;71.07
58070;BME280;43863;52.256;21.048;2022-09-09T11:01:43;100524.13;;;16.91;71.10
58070;BME280;43863;52.256;21.048;2022-09-09T11:04:16;100528.25;;;16.93;71.23
58070;BME280;43863;52.256;21.048;2022-09-09T11:06:56;100524.94;;;16.98;71.20
58070;BME280;43863;52.256;21.048;2022-09-09T11:09:32;100522.44;;;16.96;71.13
58070;BME280;43863;52.256;21.048;2022-09-09T11:12:04;100527.63;;;16.98;71.06
58070;BME280;43863;52.256;21.048;2022-09-09T11:17:11;100535.00;;;17.02;70.94
58070;BME280;43863;52.256;21.048;2022-09-09T11:19:43;100541.81;;;17.05;71.19
58070;BME280;43863;52.256;21.048;2022-09-09T11:24:48;100534.66;;;16.92;71.23
58070;BME280;43863;52.256;21.048;2022-09-09T11:27:37;100537.69;;;17.02;71.31
58070;BME280;43863;52.256;21.048;2022-09-09T11:44:41;100537.94;;;17.33;70.50
58070;BME280;43863;52.256;21.048;2022-09-09T11:47:28;100544.28;;;17.38;70.09
58070;BME280;43863;52.256;21.048;2022-09-09T11:50:36;100532.84;;;17.24;70.56
58070;BME280;43863;52.256;21.048;2022-09-09T11:53:21;100537.09;;;17.32;70.70
58070;BME280;43863;52.256;21.048;2022-09-09T11:56:13;100539.53;;;17.40;70.28
58070;BME280;43863;52.256;21.048;2022-09-09T11:58:44;100537.66;;;17.41;70.42
58070;BME280;43863;52.256;21.048;2022-09-09T12:01:39;100529.38;;;17.49;70.37
58070;BME280;43863;52.256;21.048;2022-09-09T12:12:34;100542.69;;;17.62;69.94
58070;BME280;43863;52.256;21.048;2022-09-09T12:17:50;100543.91;;;17.66;70.05
58070;BME280;43863;52.256;21.048;2022-09-09T12:20:34;100548.22;;;17.67;69.62
58070;BME280;43863;52.256;21.048;2022-09-09T12:39:59;100554.81;;;17.71;69.86
58070;BME280;43863;52.256;21.048;2022-09-09T12:42:27;100553.59;;;17.67;69.54
58070;BME280;43863;52.256;21.048;2022-09-09T12:45:00;100549.47;;;17.65;69.83
58070;BME280;43863;52.256;21.048;2022-09-09T12:50:35;100546.03;;;17.58;69.85
58070;BME280;43863;52.256;21.048;2022-09-09T12:53:07;100542.97;;;17.54;69.98
58070;BME280;43863;52.256;21.048;2022-09-09T12:55:38;100538.41;;;17.55;70.26
58070;BME280;43863;52.256;21.048;2022-09-09T12:58:06;100539.78;;;17.64;70.37
58070;BME280;43863;52.256;21.048;2022-09-09T13:00:34;100537.66;;;17.72;70.53
58070;BME280;43863;52.256;21.048;2022-09-09T13:03:16;100533.31;;;17.78;69.96
58070;BME280;43863;52.256;21.048;2022-09-09T13:05:44;100541.53;;;17.77;69.94
58070;BME280;43863;52.256;21.048;2022-09-09T13:08:15;100538.44;;;17.80;69.85
58070;BME280;43863;52.256;21.048;2022-09-09T13:11:15;100539.25;;;17.80;69.97
58070;BME280;43863;52.256;21.048;2022-09-09T13:13:51;100552.13;;;17.78;69.95
58070;BME280;43863;52.256;21.048;2022-09-09T13:16:26;100550.63;;;17.82;70.24
58070;BME280;43863;52.256;21.048;2022-09-09T13:19:16;100542.78;;;17.81;70.15
58070;BME280;43863;52.256;21.048;2022-09-09T13:21:44;100543.25;;;17.78;69.94
58070;BME280;43863;52.256;21.048;2022-09-09T13:26:59;100538.97;;;17.63;69.83
58070;BME280;43863;52.256;21.048;2022-09-09T13:29:31;100528.91;;;17.52;70.33
58070;BME280;43863;52.256;21.048;2022-09-09T13:32:12;100530.34;;;17.55;70.66
58070;BME280;43863;52.256;21.048;2022-09-09T13:34:54;100529.91;;;17.58;70.40
58070;BME280;43863;52.256;21.048;2022-09-09T13:37:35;100534.19;;;17.65;70.18
58070;BME280;43863;52.256;21.048;2022-09-09T13:40:05;100530.69;;;17.65;70.42
58070;BME280;43863;52.256;21.048;2022-09-09T13:42:38;100532.59;;;17.58;70.37
58070;BME280;43863;52.256;21.048;2022-09-09T13:45:19;100534.03;;;17.60;70.45
58070;BME280;43863;52.256;21.048;2022-09-09T13:47:48;100535.94;;;17.53;70.37
58070;BME280;43863;52.256;21.048;2022-09-09T13:50:29;100535.34;;;17.51;70.36
58070;BME280;43863;52.256;21.048;2022-09-09T13:52:59;100535.38;;;17.44;70.56
58070;BME280;43863;52.256;21.048;2022-09-09T13:55:28;100540.41;;;17.34;70.53
58070;BME280;43863;52.256;21.048;2022-09-09T13:58:00;100533.84;;;17.23;71.01
58070;BME280;43863;52.256;21.048;2022-09-09T14:00:30;100538.00;;;17.19;71.33
58070;BME280;43863;52.256;21.048;2022-09-09T14:02:58;100541.13;;;17.16;71.43
58070;BME280;43863;52.256;21.048;2022-09-09T14:05:33;100543.00;;;17.16;71.53
58070;BME280;43863;52.256;21.048;2022-09-09T14:08:04;100540.31;;;17.16;71.63
58070;BME280;43863;52.256;21.048;2022-09-09T14:10:33;100550.88;;;17.11;71.81
58070;BME280;43863;52.256;21.048;2022-09-09T14:13:04;100545.25;;;17.12;71.61
58070;BME280;43863;52.256;21.048;2022-09-09T14:15:32;100550.44;;;17.14;71.65
58070;BME280;43863;52.256;21.048;2022-09-09T14:17:59;100557.06;;;17.11;71.73
58070;BME280;43863;52.256;21.048;2022-09-09T14:20:27;100555.41;;;17.10;71.54
58070;BME280;43863;52.256;21.048;2022-09-09T14:22:55;100552.50;;;17.12;71.59
58070;BME280;43863;52.256;21.048;2022-09-09T14:25:29;100558.88;;;17.17;72.13
58070;BME280;43863;52.256;21.048;2022-09-09T14:27:57;100541.91;;;17.23;71.70
58070;BME280;43863;52.256;21.048;2022-09-09T14:30:25;100559.69;;;17.24;71.67
58070;BME280;43863;52.256;21.048;2022-09-09T14:32:53;100557.19;;;17.23;71.76
58070;BME280;43863;52.256;21.048;2022-09-09T14:35:21;100566.88;;;17.24;71.85
58070;BME280;43863;52.256;21.048;2022-09-09T14:37:49;100556.75;;;17.26;71.66
58070;BME280;43863;52.256;21.048;2022-09-09T14:40:18;100551.56;;;17.31;71.46
58070;BME280;43863;52.256;21.048;2022-09-09T14:42:46;100552.16;;;17.33;71.52
58070;BME280;43863;52.256;21.048;2022-09-09T14:45:14;100550.03;;;17.42;71.69
58070;BME280;43863;52.256;21.048;2022-09-09T14:47:41;100553.91;;;17.52;71.50
58070;BME280;43863;52.256;21.048;2022-09-09T14:50:09;100550.09;;;17.67;71.14
58070;BME280;43863;52.256;21.048;2022-09-09T14:52:38;100557.91;;;17.75;71.21
58070;BME280;43863;52.256;21.048;2022-09-09T14:55:06;100556.66;;;17.78;70.83
58070;BME280;43863;52.256;21.048;2022-09-09T14:57:37;100564.50;;;17.79;70.42
58070;BME280;43863;52.256;21.048;2022-09-09T15:00:08;100569.47;;;17.76;70.32
58070;BME280;43863;52.256;21.048;2022-09-09T15:02:36;100561.41;;;17.76;70.45
58070;BME280;43863;52.256;21.048;2022-09-09T15:05:04;100565.41;;;17.66;70.18
58070;BME280;43863;52.256;21.048;2022-09-09T15:07:32;100563.59;;;17.60;70.72
58070;BME280;43863;52.256;21.048;2022-09-09T15:10:01;100565.66;;;17.58;70.49
58070;BME280;43863;52.256;21.048;2022-09-09T15:12:29;100562.22;;;17.51;70.88
58070;BME280;43863;52.256;21.048;2022-09-09T15:14:57;100558.47;;;17.52;70.75
58070;BME280;43863;52.256;21.048;2022-09-09T15:17:25;100554.72;;;17.53;70.85
58070;BME280;43863;52.256;21.048;2022-09-09T15:19:54;100556.41;;;17.54;70.46
58070;BME280;43863;52.256;21.048;2022-09-09T15:22:22;100553.91;;;17.52;70.38
58070;BME280;43863;52.256;21.048;2022-09-09T15:24:55;100555.34;;;17.55;70.44